createdAt,value
2023-01-04T00:00:12.369Z,23.97
2023-01-04T00:02:40.471Z,25.60
2023-01-04T00:05:08.999Z,26.00
2023-01-04T00:07:36.927Z,23.10
2023-01-04T00:10:05.228Z,17.20
2023-01-04T00:12:33.198Z,24.07
2023-01-04T00:15:01.155Z,19.83
2023-01-04T00:17:30.509Z,22.73
2023-01-04T00:19:58.466Z,29.23
2023-01-04T00:22:26.415Z,28.27
2023-01-04T00:24:54.363Z,21.13
2023-01-04T00:27:22.292Z,17.97
2023-01-04T00:29:50.254Z,21.73
2023-01-04T00:32:18.207Z,17.93
2023-01-04T00:34:47.557Z,22.30
2023-01-04T00:37:15.521Z,23.40
2023-01-04T00:39:43.493Z,24.43
2023-01-04T00:42:11.389Z,25.50
2023-01-04T00:44:39.363Z,21.33
2023-01-04T00:47:07.363Z,18.60
2023-01-04T00:49:35.336Z,20.97
2023-01-04T00:52:04.728Z,17.30
2023-01-04T00:54:32.707Z,19.53
2023-01-04T00:57:01.369Z,15.50
2023-01-04T00:59:29.404Z,17.33
2023-01-04T01:01:57.469Z,16.83
2023-01-04T01:04:25.572Z,15.10
2023-01-04T01:06:53.621Z,22.10
2023-01-04T01:09:23.845Z,18.90
2023-01-04T01:11:52.128Z,20.27
2023-01-04T01:14:20.822Z,18.30
2023-01-04T01:16:58.161Z,18.93
2023-01-04T01:19:27.053Z,23.50
2023-01-04T01:21:56.480Z,13.73
2023-01-04T01:24:25.877Z,19.57
2023-01-04T01:26:53.846Z,18.07
2023-01-04T01:29:21.769Z,23.10
2023-01-04T01:31:49.902Z,16.70
2023-01-04T01:34:17.947Z,14.20
2023-01-04T01:36:45.908Z,13.67
2023-01-04T01:39:13.866Z,17.77
2023-01-04T01:41:43.136Z,23.87
2023-01-04T01:44:44.049Z,19.83
2023-01-04T01:47:12.481Z,20.43
2023-01-04T01:49:40.536Z,25.83
2023-01-04T01:52:10.290Z,18.00
2023-01-04T01:54:40.660Z,12.63
2023-01-04T01:57:11.107Z,30.47
2023-01-04T01:59:39.917Z,16.63
2023-01-04T02:02:07.952Z,24.00
2023-01-04T02:04:36.095Z,26.87
2023-01-04T02:07:04.020Z,24.30
2023-01-04T02:09:32.003Z,24.77
2023-01-04T02:11:59.990Z,17.77
2023-01-04T02:14:29.801Z,14.07
2023-01-04T02:17:05.863Z,18.40
2023-01-04T02:19:50.352Z,16.80
2023-01-04T02:22:31.299Z,19.33
2023-01-04T02:25:23.545Z,16.03
2023-01-04T02:27:53.503Z,16.73
2023-01-04T02:30:53.852Z,21.97
2023-01-04T02:33:30.663Z,15.47
2023-01-04T02:36:01.331Z,16.20
2023-01-04T02:38:31.937Z,13.60
2023-01-04T02:41:04.894Z,17.50
2023-01-04T02:43:51.928Z,19.37
2023-01-04T02:46:24.117Z,14.67
2023-01-04T02:49:09.275Z,16.53
2023-01-04T02:51:37.949Z,17.17
2023-01-04T02:54:07.688Z,19.60
2023-01-04T02:56:44.858Z,17.60
2023-01-04T02:59:40.855Z,16.07
2023-01-04T03:02:36.635Z,17.00
2023-01-04T03:05:24.574Z,24.60
2023-01-04T03:07:55.004Z,19.60
2023-01-04T03:10:24.977Z,21.00
2023-01-04T03:12:54.696Z,19.43
2023-01-04T03:15:23.934Z,17.53
2023-01-04T03:17:55.698Z,23.43
2023-01-04T03:20:24.339Z,16.30
2023-01-04T03:23:10.884Z,22.17
2023-01-04T03:25:58.152Z,27.80
2023-01-04T03:28:44.337Z,27.27
2023-01-04T03:31:31.645Z,22.17
2023-01-04T03:34:18.409Z,26.63
2023-01-04T03:37:04.137Z,26.60
2023-01-04T03:39:56.204Z,27.53
2023-01-04T03:42:43.901Z,31.40
2023-01-04T03:45:34.467Z,27.20
2023-01-04T03:48:22.799Z,31.43
2023-01-04T03:50:53.008Z,27.10
2023-01-04T03:53:21.007Z,27.53
2023-01-04T03:55:48.925Z,34.50
2023-01-04T03:58:16.874Z,37.07
2023-01-04T04:00:44.867Z,23.87
2023-01-04T04:03:12.841Z,26.30
2023-01-04T04:05:59.302Z,31.87
2023-01-04T04:08:31.422Z,26.67
2023-01-04T04:11:20.108Z,26.30
2023-01-04T04:13:48.097Z,40.20
2023-01-04T04:16:16.182Z,29.80
2023-01-04T04:18:44.184Z,38.07
2023-01-04T04:21:12.115Z,41.83
2023-01-04T04:23:41.440Z,32.70
2023-01-04T04:26:09.371Z,39.13
2023-01-04T04:28:37.357Z,44.30
2023-01-04T04:31:05.602Z,35.70
2023-01-04T04:33:33.510Z,35.50
2023-01-04T04:36:01.478Z,36.33
2023-01-04T04:38:29.449Z,38.17
2023-01-04T04:41:16.342Z,38.17
2023-01-04T04:43:44.296Z,42.83
2023-01-04T04:46:13.006Z,32.80
2023-01-04T04:48:41.015Z,49.33
2023-01-04T04:51:08.963Z,32.60
2023-01-04T04:53:36.870Z,34.80
2023-01-04T04:56:07.659Z,33.87
2023-01-04T04:58:35.671Z,31.37
2023-01-04T05:01:03.700Z,33.93
2023-01-04T05:03:31.709Z,26.40
2023-01-04T05:05:59.660Z,31.10
2023-01-04T05:08:27.645Z,27.57
2023-01-04T05:10:55.617Z,24.73
2023-01-04T05:13:23.952Z,35.53
2023-01-04T05:15:52.700Z,31.47
2023-01-04T05:18:21.515Z,36.80
2023-01-04T05:20:49.557Z,49.57
2023-01-04T05:23:18.313Z,56.90
2023-01-04T05:25:46.290Z,39.73
2023-01-04T05:28:14.276Z,40.33
2023-01-04T05:30:51.869Z,30.50
2023-01-04T05:33:21.142Z,30.27
2023-01-04T05:35:49.139Z,38.07
2023-01-04T05:38:17.300Z,42.27
2023-01-04T05:40:45.233Z,50.93
2023-01-04T05:43:13.888Z,37.40
2023-01-04T05:45:44.363Z,35.43
2023-01-04T05:48:12.346Z,39.03
2023-01-04T05:50:40.322Z,65.10
2023-01-04T05:53:08.271Z,64.00
2023-01-04T05:55:36.294Z,73.07
2023-01-04T05:58:04.256Z,50.20
2023-01-04T06:00:32.345Z,42.73
2023-01-04T06:03:01.856Z,36.43
2023-01-04T06:05:29.976Z,55.17
2023-01-04T06:07:57.943Z,42.83
2023-01-04T06:10:25.866Z,37.07
2023-01-04T06:12:53.847Z,47.40
2023-01-04T06:15:21.782Z,44.13
2023-01-04T06:17:49.734Z,46.67
2023-01-04T06:20:19.165Z,41.37
2023-01-04T06:22:47.094Z,41.87
2023-01-04T06:25:15.049Z,30.40
2023-01-04T06:27:43.064Z,23.90
2023-01-04T06:30:11.523Z,33.63
2023-01-04T06:32:39.477Z,23.70
2023-01-04T06:35:07.839Z,27.33
2023-01-04T06:37:37.136Z,30.17
2023-01-04T06:40:05.936Z,21.20
2023-01-04T06:42:45.930Z,33.30
2023-01-04T06:45:13.941Z,30.87
2023-01-04T06:47:41.997Z,30.03
2023-01-04T06:50:10.213Z,30.70
2023-01-04T06:52:39.553Z,32.90
2023-01-04T06:55:09.545Z,40.37
2023-01-04T06:57:37.854Z,30.60
2023-01-04T07:00:08.183Z,52.97
2023-01-04T07:02:36.319Z,43.40
2023-01-04T07:05:04.475Z,56.90
2023-01-04T07:07:33.389Z,52.63
2023-01-04T07:10:09.598Z,45.53
2023-01-04T07:12:37.950Z,54.90
2023-01-04T07:15:39.316Z,56.03
2023-01-04T07:17:54.733Z,53.10
2023-01-04T07:20:22.647Z,52.70
2023-01-04T07:22:50.586Z,66.53
2023-01-04T07:25:20.011Z,46.30
2023-01-04T07:27:51.993Z,62.20
2023-01-04T07:30:20.091Z,43.53
2023-01-04T07:32:48.071Z,44.77
2023-01-04T07:35:16.226Z,93.53
2023-01-04T07:37:44.245Z,72.03
2023-01-04T07:40:12.737Z,93.57
2023-01-04T07:42:42.089Z,106.30
2023-01-04T07:45:10.603Z,69.80
2023-01-04T07:47:38.569Z,73.20
2023-01-04T07:50:07.270Z,84.00
2023-01-04T07:52:35.229Z,81.40
2023-01-04T07:55:03.174Z,142.23
2023-01-04T07:57:31.090Z,80.13
2023-01-04T08:00:00.434Z,69.00
2023-01-04T08:02:28.502Z,67.37
2023-01-04T08:04:57.408Z,78.33
2023-01-04T08:07:25.484Z,49.57
2023-01-04T08:09:53.474Z,45.87
2023-01-04T08:12:21.443Z,48.70
2023-01-04T08:14:49.700Z,55.63
2023-01-04T08:17:19.037Z,59.23
2023-01-04T08:19:47.568Z,51.97
2023-01-04T08:22:15.586Z,48.67
2023-01-04T08:24:43.631Z,59.90
2023-01-04T08:27:11.790Z,46.10
2023-01-04T08:29:39.744Z,33.33
2023-01-04T08:32:07.954Z,35.47
2023-01-04T08:34:37.285Z,37.43
2023-01-04T08:37:05.241Z,41.90
2023-01-04T08:39:36.178Z,42.87
2023-01-04T08:42:17.710Z,37.43
2023-01-04T08:44:48.603Z,37.73
2023-01-04T08:47:16.540Z,94.67
2023-01-04T08:49:45.911Z,95.73
2023-01-04T08:52:15.856Z,108.70
2023-01-04T08:54:43.850Z,92.83
2023-01-04T08:57:11.830Z,82.33
2023-01-04T08:59:39.800Z,73.33
2023-01-04T09:02:23.533Z,71.50
2023-01-04T09:04:54.176Z,66.20
2023-01-04T09:07:22.184Z,61.57
2023-01-04T09:09:50.153Z,70.43
2023-01-04T09:12:18.133Z,58.97
2023-01-04T09:14:46.099Z,70.33
2023-01-04T09:17:14.026Z,70.90
2023-01-04T09:19:41.951Z,105.97
2023-01-04T09:22:11.348Z,69.37
2023-01-04T09:24:39.313Z,47.90
2023-01-04T09:27:07.264Z,58.63
2023-01-04T09:29:35.253Z,45.47
2023-01-04T09:32:03.282Z,44.40
2023-01-04T09:34:31.294Z,55.80
2023-01-04T09:36:59.215Z,40.93
2023-01-04T09:39:30.609Z,38.67
2023-01-04T09:41:59.183Z,34.87
2023-01-04T09:45:12.035Z,43.23
2023-01-04T09:47:26.967Z,35.27
2023-01-04T09:49:55.980Z,37.50
2023-01-04T09:52:25.003Z,56.57
2023-01-04T09:54:58.891Z,30.60
2023-01-04T09:57:30.245Z,26.47
2023-01-04T10:00:00.979Z,30.30
2023-01-04T10:02:32.467Z,33.37
2023-01-04T10:05:00.761Z,35.17
2023-01-04T10:07:29.561Z,39.07
2023-01-04T10:09:58.901Z,45.97
2023-01-04T10:12:35.419Z,52.80
2023-01-04T10:15:16.584Z,35.50
2023-01-04T10:21:29.432Z,35.27
2023-01-04T10:23:59.627Z,37.27
2023-01-04T10:26:31.606Z,39.87
2023-01-04T10:29:27.117Z,38.07
2023-01-04T10:31:57.042Z,32.07
2023-01-04T10:34:26.042Z,58.50
2023-01-04T10:36:57.041Z,33.90
2023-01-04T10:39:32.316Z,39.03
2023-01-04T10:42:09.320Z,36.30
2023-01-04T10:44:39.597Z,30.03
2023-01-04T10:47:10.275Z,30.77
2023-01-04T10:49:42.939Z,32.40
2023-01-04T10:52:13.094Z,68.90
2023-01-04T10:54:42.264Z,41.77
2023-01-04T10:57:13.215Z,33.57
2023-01-04T10:59:43.670Z,34.83
2023-01-04T11:02:17.328Z,57.63
2023-01-04T11:04:48.109Z,40.43
2023-01-04T11:07:19.353Z,56.07
2023-01-04T11:09:48.702Z,52.17
2023-01-04T11:12:18.651Z,29.30
2023-01-04T11:14:46.667Z,30.17
2023-01-04T11:17:14.604Z,30.17
2023-01-04T11:19:42.553Z,29.87
2023-01-04T11:22:15.032Z,24.23
2023-01-04T11:25:00.496Z,22.50
2023-01-04T11:27:33.337Z,17.37
2023-01-04T11:30:03.953Z,37.17
2023-01-04T11:32:36.075Z,20.30
2023-01-04T11:35:04.115Z,20.67
2023-01-04T11:37:34.510Z,31.60
2023-01-04T11:40:21.544Z,47.60
2023-01-04T11:42:52.060Z,32.33
2023-01-04T11:45:24.863Z,34.23
2023-01-04T11:47:54.076Z,23.80
2023-01-04T11:50:40.028Z,26.63
2023-01-04T11:53:30.493Z,28.33
2023-01-04T11:56:10.825Z,44.83
2023-01-04T11:58:40.170Z,41.90
2023-01-04T12:01:11.872Z,64.63
2023-01-04T12:03:40.436Z,31.47
2023-01-04T12:06:11.821Z,64.37
2023-01-04T12:08:39.822Z,32.57
2023-01-04T12:11:07.812Z,33.73
2023-01-04T12:13:35.737Z,45.27
2023-01-04T12:16:08.812Z,52.47
2023-01-04T12:18:37.548Z,80.83
2023-01-04T12:21:05.721Z,45.97
2023-01-04T12:23:34.484Z,61.27
2023-01-04T12:26:02.424Z,54.90
2023-01-04T12:28:34.776Z,39.77
2023-01-04T12:31:29.421Z,44.20
2023-01-04T12:33:58.237Z,79.50
2023-01-04T12:37:04.803Z,72.33
2023-01-04T12:39:42.831Z,51.43
2023-01-04T12:42:24.756Z,44.27
2023-01-04T12:45:16.849Z,77.30
2023-01-04T12:48:04.639Z,74.63
2023-01-04T12:50:34.168Z,64.80
2023-01-04T12:55:55.846Z,48.23
2023-01-04T13:02:15.841Z,33.13
2023-01-04T13:04:45.681Z,36.13
2023-01-04T13:07:17.626Z,45.07
2023-01-04T13:09:51.073Z,51.60
2023-01-04T13:12:51.139Z,47.73
2023-01-04T13:15:23.073Z,49.20
2023-01-04T13:17:51.011Z,46.10
2023-01-04T13:20:21.714Z,50.43
2023-01-04T13:22:52.754Z,44.43
2023-01-04T13:25:20.771Z,52.23
2023-01-04T13:28:02.092Z,53.30
2023-01-04T13:30:32.018Z,49.13
2023-01-04T13:33:25.614Z,53.60
2023-01-04T13:36:00.739Z,76.10
2023-01-04T13:38:28.979Z,67.17
2023-01-04T13:40:57.008Z,62.20
2023-01-04T13:43:42.792Z,81.53
2023-01-04T13:46:14.880Z,78.27
2023-01-04T13:48:43.820Z,48.90
2023-01-04T13:51:17.523Z,57.33
2023-01-04T13:53:53.544Z,52.97
2023-01-04T13:56:22.833Z,66.50
2023-01-04T13:58:51.638Z,59.83
2023-01-04T14:01:22.289Z,65.73
2023-01-04T14:03:51.317Z,58.83
2023-01-04T14:06:23.104Z,58.50
2023-01-04T14:08:56.539Z,69.37
2023-01-04T14:11:42.899Z,72.53
2023-01-04T14:14:20.877Z,73.90
2023-01-04T14:16:49.100Z,60.27
2023-01-04T14:19:51.229Z,74.73
2023-01-04T14:22:41.035Z,59.27
2023-01-04T14:28:49.921Z,69.20
2023-01-04T14:31:36.958Z,67.43
2023-01-04T14:34:09.314Z,69.13
2023-01-04T14:36:37.388Z,74.50
2023-01-04T14:39:26.787Z,83.17
2023-01-04T14:41:57.461Z,74.27
2023-01-04T14:44:27.649Z,67.10
2023-01-04T14:46:56.590Z,63.87
2023-01-04T14:49:26.904Z,68.17
2023-01-04T14:51:55.714Z,96.87
2023-01-04T14:54:25.842Z,69.33
2023-01-04T14:56:53.959Z,68.97
2023-01-04T14:59:23.865Z,73.03
2023-01-04T15:01:52.517Z,83.93
2023-01-04T15:04:20.705Z,77.23
2023-01-04T15:06:50.479Z,62.20
2023-01-04T15:09:18.391Z,67.70
2023-01-04T15:11:50.413Z,67.67
2023-01-04T15:14:18.468Z,65.27
2023-01-04T15:16:46.437Z,89.17
2023-01-04T15:19:14.452Z,98.40
2023-01-04T15:21:42.440Z,80.77
2023-01-04T15:24:10.573Z,102.50
2023-01-04T15:26:39.183Z,114.57
2023-01-04T15:29:08.707Z,83.47
2023-01-04T15:31:39.790Z,88.30
2023-01-04T15:34:09.323Z,117.13
2023-01-04T15:36:40.587Z,103.47
2023-01-04T15:39:09.125Z,96.23
2023-01-04T15:41:54.604Z,115.40
2023-01-04T15:44:23.950Z,84.97
2023-01-04T15:46:53.211Z,88.70
2023-01-04T15:49:21.226Z,86.27
2023-01-04T15:51:49.219Z,89.60
2023-01-04T15:54:17.564Z,104.43
2023-01-04T15:56:45.591Z,106.63
2023-01-04T15:59:13.868Z,107.97
2023-01-04T16:01:43.347Z,98.40
2023-01-04T16:04:12.430Z,93.87
2023-01-04T16:06:40.508Z,121.67
2023-01-04T16:09:08.454Z,127.50
2023-01-04T16:11:36.416Z,116.67
2023-01-04T16:14:04.364Z,106.67
2023-01-04T16:16:32.843Z,151.30
2023-01-04T16:19:02.724Z,93.30
2023-01-04T16:21:31.619Z,104.33
2023-01-04T16:24:07.212Z,107.30
2023-01-04T16:26:41.115Z,257.60
2023-01-04T16:29:09.131Z,151.03
2023-01-04T16:31:37.529Z,107.43
2023-01-04T16:34:06.979Z,114.90
2023-01-04T16:36:34.935Z,113.23
2023-01-04T16:39:02.929Z,108.23
2023-01-04T16:41:30.899Z,113.33
2023-01-04T16:43:59.593Z,102.50
2023-01-04T16:46:27.868Z,140.50
2023-01-04T16:48:56.605Z,114.13
2023-01-04T16:51:26.519Z,112.20
2023-01-04T16:53:54.584Z,128.33
2023-01-04T16:56:23.461Z,121.80
2023-01-04T16:58:51.512Z,104.30
2023-01-04T17:01:20.435Z,131.73
2023-01-04T17:03:48.852Z,117.57
2023-01-04T17:06:17.526Z,103.07
2023-01-04T17:08:47.660Z,187.37
2023-01-04T17:12:10.994Z,138.07
2023-01-04T17:14:04.552Z,119.17
2023-01-04T17:16:34.919Z,125.53
2023-01-04T17:19:03.225Z,109.13
2023-01-04T17:21:34.383Z,162.63
2023-01-04T17:24:04.557Z,115.37
2023-01-04T17:26:33.258Z,110.00
2023-01-04T17:29:01.509Z,121.93
2023-01-04T17:31:30.417Z,268.77
2023-01-04T17:33:58.413Z,122.43
2023-01-04T17:36:26.402Z,119.27
2023-01-04T17:38:54.351Z,117.10
2023-01-04T17:41:24.184Z,139.93
2023-01-04T17:43:52.675Z,181.03
2023-01-04T17:46:23.304Z,218.87
2023-01-04T17:48:58.973Z,351.70
2023-01-04T17:51:40.033Z,124.00
2023-01-04T17:54:08.502Z,214.60
2023-01-04T17:56:38.064Z,120.30
2023-01-04T17:59:06.837Z,252.80
2023-01-04T18:01:35.365Z,167.80
2023-01-04T18:04:03.541Z,147.67
2023-01-04T18:06:33.037Z,130.57
2023-01-04T18:09:01.107Z,154.60
2023-01-04T18:11:29.159Z,105.83
2023-01-04T18:13:58.459Z,187.57
2023-01-04T18:16:27.213Z,157.77
2023-01-04T18:18:55.282Z,103.60
2023-01-04T18:21:28.427Z,104.83
2023-01-04T18:29:34.592Z,119.10
2023-01-04T18:32:02.564Z,120.70
2023-01-04T18:34:30.550Z,117.67
2023-01-04T18:36:58.545Z,148.43
2023-01-04T18:39:26.682Z,292.80
2023-01-04T18:41:54.588Z,136.23
2023-01-04T18:44:32.680Z,119.43
2023-01-04T18:47:03.112Z,128.10
2023-01-04T18:49:31.083Z,149.20
2023-01-04T18:51:59.122Z,137.97
2023-01-04T18:54:27.093Z,99.20
2023-01-04T18:57:00.794Z,329.43
2023-01-04T18:59:29.565Z,194.10
2023-01-04T19:02:01.310Z,98.50
2023-01-04T19:04:32.209Z,194.50
2023-01-04T19:07:00.205Z,143.03
2023-01-04T19:09:28.183Z,67.63
2023-01-04T19:11:56.160Z,77.17
2023-01-04T19:14:24.131Z,135.80
2023-01-04T19:16:53.192Z,141.20
2023-01-04T19:19:21.337Z,112.10
2023-01-04T19:21:50.645Z,100.10
2023-01-04T19:24:18.589Z,91.83
2023-01-04T19:26:46.615Z,76.27
2023-01-04T19:29:14.609Z,73.97
2023-01-04T19:31:42.551Z,72.30
2023-01-04T19:34:10.733Z,92.00
2023-01-04T19:36:38.727Z,78.63
2023-01-04T19:39:09.408Z,76.17
2023-01-04T19:41:38.319Z,81.47
2023-01-04T19:44:07.341Z,71.00
2023-01-04T19:46:35.373Z,64.97
2023-01-04T19:49:03.406Z,67.10
2023-01-04T19:51:31.362Z,61.73
2023-01-04T19:53:59.299Z,67.30
2023-01-04T19:56:28.631Z,71.00
2023-01-04T19:58:56.540Z,72.77
2023-01-04T20:01:24.595Z,69.00
2023-01-04T20:03:53.187Z,68.47
2023-01-04T20:06:21.439Z,64.70
2023-01-04T20:08:49.389Z,68.93
2023-01-04T20:11:17.341Z,80.07
2023-01-04T20:13:46.615Z,89.57
2023-01-04T20:16:14.561Z,78.57
2023-01-04T20:18:42.605Z,64.83
2023-01-04T20:21:11.505Z,68.20
2023-01-04T20:23:39.590Z,59.37
2023-01-04T20:26:11.411Z,70.57
2023-01-04T20:28:41.864Z,71.37
2023-01-04T20:31:12.717Z,81.20
2023-01-04T20:33:40.816Z,64.37
2023-01-04T20:36:09.899Z,71.10
2023-01-04T20:38:40.220Z,67.97
2023-01-04T20:41:08.636Z,69.20
2023-01-04T20:43:37.185Z,64.33
2023-01-04T20:46:05.691Z,78.87
2023-01-04T20:48:35.085Z,83.27
2023-01-04T20:51:06.952Z,75.83
2023-01-04T20:53:36.217Z,62.33
2023-01-04T20:56:08.391Z,79.77
2023-01-04T20:58:36.360Z,81.30
2023-01-04T21:01:05.517Z,62.17
2023-01-04T21:03:35.074Z,71.90
2023-01-04T21:06:03.495Z,73.80
2023-01-04T21:08:31.502Z,69.33
2023-01-04T21:10:59.455Z,77.50
2023-01-04T21:13:28.283Z,70.77
2023-01-04T21:15:56.284Z,72.77
2023-01-04T21:18:24.373Z,80.53
2023-01-04T21:20:53.729Z,81.77
2023-01-04T21:23:25.536Z,78.00
2023-01-04T21:25:53.553Z,100.67
2023-01-04T21:28:22.344Z,72.87
2023-01-04T21:30:50.396Z,60.53
2023-01-04T21:33:18.345Z,90.43
2023-01-04T21:35:46.305Z,69.77
2023-01-04T21:38:15.667Z,90.90
2023-01-04T21:40:43.649Z,98.00
2023-01-04T21:43:15.821Z,97.20
2023-01-04T21:45:43.733Z,74.07
2023-01-04T21:48:11.707Z,65.50
2023-01-04T21:50:39.644Z,73.30
2023-01-04T21:53:07.596Z,81.10
2023-01-04T21:55:36.954Z,87.57
2023-01-04T21:58:04.912Z,79.83
2023-01-04T22:00:32.862Z,80.10
2023-01-04T22:03:00.902Z,74.70
2023-01-04T22:05:28.857Z,71.33
2023-01-04T22:07:56.796Z,74.00
2023-01-04T22:10:24.779Z,79.90
2023-01-04T22:12:54.091Z,86.93
2023-01-04T22:15:22.073Z,69.63
2023-01-04T22:17:51.365Z,77.17
2023-01-04T22:20:19.398Z,93.33
2023-01-04T22:22:47.345Z,72.03
2023-01-04T22:25:15.363Z,81.13
2023-01-04T22:27:43.345Z,101.50
2023-01-04T22:30:13.632Z,154.70
2023-01-04T22:32:41.583Z,140.57
2023-01-04T22:35:10.135Z,159.70
2023-01-04T22:37:38.052Z,156.77
2023-01-04T22:40:07.075Z,166.57
2023-01-04T22:42:35.019Z,272.07
2023-01-04T22:45:07.918Z,192.23
2023-01-04T22:47:40.409Z,205.07
2023-01-04T22:50:08.940Z,150.47
2023-01-04T22:52:36.881Z,191.70
2023-01-04T22:55:05.072Z,140.03
2023-01-04T22:57:33.002Z,164.33
2023-01-04T23:00:00.961Z,115.40
2023-01-04T23:02:28.945Z,160.73
2023-01-04T23:04:58.257Z,143.87
2023-01-04T23:07:26.184Z,85.23
2023-01-04T23:09:54.090Z,103.57
2023-01-04T23:12:22.044Z,73.63
2023-01-04T23:14:49.986Z,89.47
2023-01-04T23:17:17.970Z,74.40
2023-01-04T23:19:45.938Z,82.40
2023-01-04T23:22:15.233Z,87.30
2023-01-04T23:24:43.154Z,85.03
2023-01-04T23:27:11.123Z,72.83
2023-01-04T23:29:39.075Z,79.33
2023-01-04T23:32:07.445Z,69.73
2023-01-04T23:34:35.425Z,72.37
2023-01-04T23:37:03.367Z,79.53
2023-01-04T23:39:32.672Z,64.60
2023-01-04T23:42:00.667Z,77.53
2023-01-04T23:44:30.961Z,67.07
2023-01-04T23:46:59.539Z,80.23
2023-01-04T23:49:28.214Z,64.40
2023-01-04T23:51:56.139Z,54.87
2023-01-04T23:54:24.290Z,63.10
2023-01-04T23:56:53.835Z,71.63
2023-01-04T23:59:22.150Z,74.37
